Time;durP1;ratioP1;P1;durP2;ratioP2;P2;SDS_P1;SDS_P2;PMS_P1;PMS_P2;Temp;Humidity;BMP_temperature;BMP_pressure;BME280_temperature;BME280_humidity;BME280_pressure;Samples;Min_cycle;Max_cycle;Signal;HPM_P1;HPM_P2
2020/12/05 00:01:08;;;;;;;7.57;3.95;;;0.80;99.90;;;-1.31;89.25;98878.31;4979077;28;20107;-41
2020/12/05 00:03:35;;;;;;;6.45;3.72;;;0.70;99.90;;;-1.35;89.11;98873.50;4994936;28;20504;-41
2020/12/05 00:06:02;;;;;;;6.50;3.90;;;0.70;99.90;;;-1.40;88.62;98871.38;4994440;28;20038;-41
2020/12/05 00:08:30;;;;;;;7.10;3.50;;;0.70;99.90;;;-1.46;88.69;98875.63;4947135;28;20067;-41
2020/12/05 00:10:57;;;;;;;6.97;3.53;;;0.60;99.90;;;-1.49;88.44;98883.19;4963350;28;20038;-41
2020/12/05 00:13:25;;;;;;;6.18;3.40;;;0.60;99.90;;;-1.53;88.83;98884.56;4978568;28;20508;-41
2020/12/05 00:15:52;;;;;;;7.72;3.67;;;0.60;99.90;;;-1.56;89.07;98885.75;4931126;28;20048;-41
2020/12/05 00:18:19;;;;;;;6.40;3.20;;;0.50;99.90;;;-1.58;89.39;98889.63;4962866;28;20133;-41
2020/12/05 00:20:47;;;;;;;5.97;3.55;;;0.50;99.90;;;-1.60;88.91;98877.22;4947001;28;20085;-41
2020/12/05 00:23:14;;;;;;;7.25;3.65;;;0.50;99.90;;;-1.60;89.05;98881.78;4963117;28;20042;-41
2020/12/05 00:25:42;;;;;;;6.17;3.60;;;0.50;99.90;;;-1.62;89.51;98878.44;4962779;28;20042;-41
2020/12/05 00:28:09;;;;;;;7.38;3.70;;;0.40;99.90;;;-1.65;89.01;98884.97;4946834;28;20435;-42
2020/12/05 00:30:37;;;;;;;5.80;2.93;;;0.40;99.90;;;-1.69;88.54;98889.03;4946719;28;20504;-41
2020/12/05 00:33:04;;;;;;;8.80;3.07;;;0.40;99.90;;;-1.71;88.88;98891.06;4962803;28;20435;-41
2020/12/05 00:35:32;;;;;;;6.20;3.42;;;0.40;99.90;;;-1.72;88.12;98889.41;4978616;28;20555;-41
2020/12/05 00:37:59;;;;;;;6.28;3.40;;;0.30;99.90;;;-1.76;88.50;98888.09;4962554;28;20034;-41
2020/12/05 00:40:26;;;;;;;7.47;3.47;;;0.30;99.90;;;-1.76;88.13;98888.09;4962489;28;20129;-41
2020/12/05 00:42:54;;;;;;;5.75;3.30;;;0.30;99.90;;;-1.77;88.82;98897.13;4994914;28;20042;-41
2020/12/05 00:45:22;;;;;;;7.53;3.58;;;0.30;99.90;;;-1.77;88.89;98897.13;4946374;28;20050;-41
2020/12/05 00:47:49;;;;;;;8.73;3.53;;;0.30;99.90;;;-1.71;89.31;98892.91;4962349;28;20069;-41
2020/12/05 00:50:17;;;;;;;6.15;3.38;;;0.30;99.90;;;-1.71;88.78;98896.41;4947189;28;20416;-41
2020/12/05 00:52:44;;;;;;;7.05;3.30;;;0.30;99.90;;;-1.67;88.68;98895.03;4946896;28;20045;-41
2020/12/05 00:55:13;;;;;;;7.00;3.50;;;0.30;99.90;;;-1.66;89.46;98888.66;4947200;28;20042;-41
2020/12/05 00:57:41;;;;;;;7.07;4.00;;;0.40;99.90;;;-1.64;88.80;98885.81;4962711;28;20420;-41
2020/12/05 01:00:09;;;;;;;7.20;4.37;;;0.40;99.90;;;-1.62;89.26;98884.63;4962532;28;20120;-41
2020/12/05 01:02:36;;;;;;;7.47;3.83;;;0.40;99.90;;;-1.61;89.89;98883.59;4978467;28;20230;-41
2020/12/05 01:05:04;;;;;;;5.93;4.03;;;0.40;99.90;;;-1.61;90.01;98878.25;4962121;28;20428;-41
2020/12/05 01:07:32;;;;;;;5.93;3.42;;;0.40;99.90;;;-1.60;90.14;98876.41;4961933;28;20041;-41
2020/12/05 01:09:59;;;;;;;5.97;3.50;;;0.40;99.90;;;-1.61;90.14;98877.44;4930601;28;20049;-41
2020/12/05 01:12:27;;;;;;;7.65;3.80;;;0.40;99.90;;;-1.62;89.65;98878.44;4994094;28;20427;-41
2020/12/05 01:14:54;;;;;;;6.30;3.65;;;0.40;99.90;;;-1.66;88.88;98882.50;4946071;28;20045;-41
2020/12/05 01:17:24;;;;;;;6.67;3.60;;;0.40;99.90;;;-1.65;89.50;98884.97;4946304;28;20444;-41
2020/12/05 01:19:52;;;;;;;5.93;3.33;;;0.40;99.90;;;-1.70;89.05;98886.56;4997286;28;20535;-41
2020/12/05 01:22:22;;;;;;;;;;;0.30;99.90;;;-1.68;89.28;98895.22;4982964;28;20069;-41
2020/12/05 01:24:51;;;;;;;8.55;3.90;;;0.40;99.90;;;-1.70;89.45;98895.38;4998184;28;20380;-41
2020/12/05 01:27:19;;;;;;;8.10;4.53;;;0.30;99.90;;;-1.69;89.82;98910.41;4950162;28;20038;-41
2020/12/05 01:29:46;;;;;;;7.00;4.32;;;0.40;99.90;;;-1.70;88.99;98906.09;4949877;28;20050;-41
2020/12/05 01:32:14;;;;;;;7.78;4.07;;;0.30;99.90;;;-1.68;89.87;98917.44;4966009;28;20415;-41
2020/12/05 01:34:42;;;;;;;5.65;3.50;;;0.30;99.90;;;-1.68;89.95;98916.63;4981696;28;20483;-41
2020/12/05 01:37:10;;;;;;;7.40;4.05;;;0.40;99.90;;;-1.67;89.45;98913.75;4965663;28;20038;-41
2020/12/05 01:39:38;;;;;;;7.32;4.03;;;0.30;99.90;;;-1.65;89.87;98924.28;4965787;28;20061;-41
2020/12/05 01:42:06;;;;;;;6.30;3.67;;;0.40;99.90;;;-1.63;89.73;98923.06;4965619;28;20046;-41
2020/12/05 01:44:33;;;;;;;8.30;4.10;;;0.40;99.90;;;-1.56;90.32;98930.41;4949768;28;20157;-41
2020/12/05 01:47:03;;;;;;;;;;;0.40;99.90;;;-1.57;89.62;98931.41;4950581;28;20046;-41
2020/12/05 01:49:31;;;;;;;6.37;3.57;;;0.40;99.90;;;-1.54;90.59;98931.03;4965371;28;19968;-41
2020/12/05 01:52:01;;;;;;;7.65;4.13;;;0.50;99.90;;;-1.52;91.14;98926.34;4981831;28;20447;-41
2020/12/05 01:54:30;;;;;;;10.48;4.28;;;0.50;99.90;;;-1.51;90.17;98938.72;4997414;28;20045;-41
2020/12/05 01:57:04;;;;;;;6.88;3.80;;;0.50;99.90;;;-1.48;91.10;98933.81;4981639;28;20046;-41
2020/12/05 01:59:32;;;;;;;7.05;3.70;;;0.50;99.90;;;-1.47;90.97;98931.97;4965198;28;20054;-41
2020/12/05 02:02:09;;;;;;;9.13;4.28;;;0.50;99.90;;;-1.44;91.32;98934.28;4965791;28;20049;-41
2020/12/05 02:04:48;;;;;;;8.73;4.07;;;0.60;99.90;;;-1.40;91.48;98934.78;4980973;28;20053;-41
2020/12/05 02:07:30;;;;;;;7.82;4.40;;;0.60;99.90;;;-1.36;91.00;98931.53;4981277;28;20125;-41
2020/12/05 02:10:00;;;;;;;6.60;4.07;;;0.60;99.90;;;-1.31;91.39;98936.34;4967081;28;20046;-41
2020/12/05 02:12:50;;;;;;;7.32;3.85;;;0.70;99.90;;;-1.30;91.18;98935.34;4965537;28;20045;-41
2020/12/05 02:15:32;;;;;;;7.85;3.83;;;0.70;99.90;;;-1.32;91.16;98954.25;4980886;28;20046;-41
2020/12/05 02:18:04;;;;;;;7.38;3.72;;;0.70;99.90;;;-1.34;90.82;98948.22;4981218;28;20471;-41
2020/12/05 02:20:37;;;;;;;7.40;4.10;;;0.70;99.90;;;-1.32;90.61;98950.75;4980947;28;20061;-41
2020/12/05 02:23:07;;;;;;;6.70;3.80;;;0.70;99.90;;;-1.31;91.17;98955.94;4949999;28;20562;-41
2020/12/05 02:25:36;;;;;;;5.80;3.67;;;0.70;99.90;;;-1.28;91.12;98951.22;4980715;28;20538;-41
2020/12/05 02:28:07;;;;;;;7.55;4.13;;;0.70;99.90;;;-1.25;90.57;98942.81;4964624;28;20607;-41
2020/12/05 02:30:36;;;;;;;9.23;4.45;;;0.70;99.90;;;-1.26;91.04;98941.16;4980184;28;20042;-41
2020/12/05 02:33:05;;;;;;;8.80;4.18;;;0.70;99.90;;;-1.25;91.09;98942.81;4964667;28;20117;-41
2020/12/05 02:35:32;;;;;;;7.85;4.22;;;0.70;99.90;;;-1.23;91.17;98943.47;4980531;28;20046;-41
2020/12/05 02:38:25;;;;;;;6.47;3.80;;;0.70;99.90;;;-1.24;91.57;98949.84;4980994;28;20088;-41
2020/12/05 02:40:53;;;;;;;7.55;4.18;;;0.70;99.90;;;-1.26;91.43;98957.22;4980682;28;20084;-41
2020/12/05 02:43:20;;;;;;;6.10;3.75;;;0.70;99.90;;;-1.27;91.09;98960.91;4948391;28;20045;-41
2020/12/05 02:45:48;;;;;;;7.15;3.72;;;0.70;99.90;;;-1.28;91.17;98968.09;4948335;28;20046;-41
2020/12/05 02:48:15;;;;;;;7.38;3.70;;;0.70;99.90;;;-1.24;91.25;98971.25;4980596;28;20564;-41
2020/12/05 02:50:43;;;;;;;8.23;3.85;;;0.70;99.90;;;-1.24;91.48;98980.09;4948456;28;20512;-41
2020/12/05 02:53:10;;;;;;;8.03;4.27;;;0.70;99.90;;;-1.25;90.83;98975.75;4964510;28;20062;-41
2020/12/05 02:55:38;;;;;;;8.03;4.43;;;0.80;99.90;;;-1.17;90.96;98980.22;4948224;28;20065;-41
2020/12/05 02:58:05;;;;;;;7.38;4.35;;;0.80;99.90;;;-1.17;90.64;98982.88;4964628;28;20514;-41
2020/12/05 03:00:32;;;;;;;7.22;3.88;;;0.80;99.90;;;-1.14;90.88;98976.34;4964351;28;20044;-41
2020/12/05 03:03:02;;;;;;;7.97;4.47;;;0.80;99.90;;;-1.14;90.80;98973.69;4932513;28;20077;-41
2020/12/05 03:05:30;;;;;;;8.05;4.38;;;0.80;99.90;;;-1.12;91.13;98968.97;4964428;28;20037;-41
2020/12/05 03:07:57;;;;;;;;;;;0.80;99.90;;;-1.08;91.08;98975.63;4980389;28;20133;-41
2020/12/05 03:10:25;;;;;;;6.38;3.67;;;0.80;99.90;;;-1.08;91.04;98967.59;4948030;28;19921;-41
2020/12/05 03:12:52;;;;;;;8.40;4.25;;;0.80;99.90;;;-1.08;91.88;98964.91;4963823;28;20425;-41
2020/12/05 03:15:20;;;;;;;6.07;3.80;;;0.90;99.90;;;-1.07;91.57;98961.22;4948137;28;20572;-41
2020/12/05 03:17:47;;;;;;;7.83;4.40;;;0.90;99.90;;;-1.08;91.30;98959.56;4963706;28;20518;-42
2020/12/05 03:20:15;;;;;;;8.10;4.25;;;0.90;99.90;;;-1.09;91.78;98961.38;4963874;28;20042;-41
2020/12/05 03:22:43;;;;;;;9.52;4.28;;;0.90;99.90;;;-1.08;91.67;98963.03;4964224;28;20050;-41
2020/12/05 03:25:10;;;;;;;6.50;4.20;;;0.90;99.90;;;-1.07;91.80;98955.88;4947878;28;20120;-41
2020/12/05 03:27:37;;;;;;;7.30;4.50;;;0.90;99.90;;;-1.06;91.11;98965.56;4947893;28;20056;-41
2020/12/05 03:30:05;;;;;;;9.20;4.33;;;0.90;99.90;;;-1.06;91.41;98961.03;4979878;28;20041;-41
2020/12/05 03:32:33;;;;;;;7.35;4.35;;;0.90;99.90;;;-1.05;91.29;98957.34;4947783;28;20535;-41
2020/12/05 03:35:01;;;;;;;7.65;4.18;;;0.90;99.90;;;-1.06;91.25;98961.03;4979538;28;20041;-41
2020/12/05 03:37:29;;;;;;;6.40;3.75;;;0.90;99.90;;;-1.07;91.06;98966.56;4963415;28;20038;-41
2020/12/05 03:39:56;;;;;;;6.45;3.72;;;0.90;99.90;;;-1.05;91.21;98961.88;4963977;28;20050;-41
2020/12/05 03:42:24;;;;;;;;;;;0.90;99.90;;;-1.04;91.70;98972.41;4963729;28;20446;-41
2020/12/05 03:44:52;;;;;;;8.95;3.90;;;0.90;99.90;;;-1.01;91.27;98976.53;4979566;28;20446;-41
2020/12/05 03:47:20;;;;;;;6.68;3.97;;;0.90;99.90;;;-0.99;91.25;98979.88;4963649;28;20056;-41
2020/12/05 03:49:48;;;;;;;7.15;3.83;;;0.90;99.90;;;-0.98;91.30;98986.88;4947427;28;20053;-42
2020/12/05 03:52:16;;;;;;;8.77;4.10;;;1.00;99.90;;;-0.98;91.48;98978.03;4995313;28;20046;-41
2020/12/05 03:54:44;;;;;;;7.55;4.25;;;1.00;99.90;;;-0.93;92.18;98983.66;4947471;28;20068;-41
2020/12/05 03:57:14;;;;;;;7.35;3.90;;;1.00;99.90;;;-0.92;91.85;98985.34;4963496;28;20038;-41
2020/12/05 03:59:41;;;;;;;8.38;4.20;;;1.00;99.90;;;-0.91;91.54;98990.50;4947844;28;20038;-41
2020/12/05 04:02:09;;;;;;;8.10;4.03;;;1.00;99.90;;;-0.91;91.55;98992.34;4916049;28;20048;-41
2020/12/05 04:04:36;;;;;;;8.27;4.22;;;1.10;99.90;;;-0.90;91.95;98996.69;4962958;28;20452;-42
2020/12/05 04:07:04;;;;;;;6.80;3.65;;;1.00;99.90;;;-0.92;92.36;98994.22;4947000;28;20038;-41
2020/12/05 04:09:31;;;;;;;7.82;4.00;;;1.10;99.90;;;-0.88;92.30;99008.03;4947135;28;20154;-41
2020/12/05 04:11:58;;;;;;;8.70;3.80;;;1.10;99.90;;;-0.88;91.97;99013.41;4962630;28;20077;-41
2020/12/05 04:14:26;;;;;;;7.22;3.65;;;1.10;99.90;;;-0.87;92.08;99015.06;4962777;28;20104;-41
2020/12/05 04:16:54;;;;;;;8.23;4.70;;;1.10;99.90;;;-0.88;91.78;99016.06;4962993;28;20044;-41
2020/12/05 04:19:21;;;;;;;8.73;4.20;;;1.10;99.90;;;-0.91;92.26;99014.63;4946871;28;20100;-41
2020/12/05 04:21:49;;;;;;;7.20;4.05;;;1.10;99.90;;;-0.92;91.82;99020.97;4946956;28;20041;-41
2020/12/05 04:24:17;;;;;;;;;;;1.00;99.90;;;-0.91;92.14;99028.00;4963350;28;20050;-41
2020/12/05 04:26:44;;;;;;;6.90;3.83;;;1.00;99.90;;;-0.91;92.23;99021.81;4994720;28;20509;-41
2020/12/05 04:29:11;;;;;;;7.35;4.30;;;1.10;99.90;;;-0.88;92.41;99026.78;4962870;28;20496;-42
2020/12/05 04:31:38;;;;;;;7.65;3.90;;;1.00;99.90;;;-0.91;91.87;99019.13;4978777;28;20447;-41
2020/12/05 04:34:06;;;;;;;7.43;4.25;;;1.10;99.90;;;-0.87;92.10;99017.75;4962645;28;20069;-41
2020/12/05 04:36:33;;;;;;;7.88;4.05;;;1.10;99.90;;;-0.88;91.59;99019.59;4979993;28;20161;-41
2020/12/05 04:39:01;;;;;;;8.95;4.72;;;1.10;99.90;;;-0.85;92.13;99012.22;4946844;28;20524;-41
2020/12/05 04:41:28;;;;;;;7.23;3.90;;;1.10;99.90;;;-0.83;92.11;99026.25;4930934;28;20460;-41
2020/12/05 04:43:56;;;;;;;7.07;4.03;;;1.10;99.90;;;-0.80;91.68;99025.88;4962360;28;21043;-41
2020/12/05 04:46:25;;;;;;;6.28;3.90;;;1.10;99.90;;;-0.79;92.35;99044.47;4962562;28;20425;-41
2020/12/05 04:48:55;;;;;;;8.55;4.97;;;1.20;99.90;;;-0.77;92.30;99041.59;4962291;28;20057;-41
2020/12/05 04:51:34;;;;;;;8.80;4.93;;;1.20;99.90;;;-0.77;91.56;99042.44;4946500;28;20046;-41
2020/12/05 04:54:04;;;;;;;11.43;6.00;;;1.20;99.90;;;-0.73;91.81;99038.38;4994327;28;20058;-41
2020/12/05 04:56:39;;;;;;;11.95;5.85;;;1.20;99.90;;;-0.66;91.96;99037.63;4994355;28;20129;-41
2020/12/05 04:59:09;;;;;;;14.18;6.93;;;1.30;99.90;;;-0.54;92.55;99029.97;4994269;28;20042;-41
2020/12/05 05:01:38;;;;;;;14.23;7.32;;;1.40;99.90;;;-0.45;93.24;99037.75;4978270;28;20052;-41
2020/12/05 05:04:06;;;;;;;15.23;7.45;;;1.40;99.90;;;-0.44;93.52;99036.72;4961920;28;20054;-41
2020/12/05 05:06:34;;;;;;;10.93;6.05;;;1.50;99.90;;;-0.40;93.83;99049.75;4978208;28;20057;-41
2020/12/05 05:09:01;;;;;;;15.57;8.33;;;1.50;99.90;;;-0.39;93.72;99044.22;4962204;28;20546;-41
2020/12/05 05:11:29;;;;;;;19.83;9.00;;;1.60;99.90;;;-0.26;94.09;99043.56;4961838;28;20042;-41
2020/12/05 05:14:05;;;;;;;21.90;9.70;;;1.60;99.90;;;-0.13;94.32;99042.06;4978705;28;20152;-41
2020/12/05 05:16:33;;;;;;;18.45;9.10;;;1.70;99.90;;;0.01;94.66;99043.91;4994033;28;20049;-41
2020/12/05 05:19:22;;;;;;;19.42;10.27;;;1.90;99.90;;;0.08;95.15;99044.81;4946241;28;20449;-41
2020/12/05 05:21:51;;;;;;;21.70;9.63;;;1.90;99.90;;;0.11;94.99;99048.97;4961880;28;20045;-41
2020/12/05 05:24:21;;;;;;;24.55;10.57;;;2.00;99.90;;;0.13;95.48;99057.66;4978023;28;20077;-41
2020/12/05 05:27:01;;;;;;;25.73;11.98;;;2.00;99.90;;;0.16;95.70;99061.81;4977745;28;20050;-41
2020/12/05 05:29:36;;;;;;;28.50;13.18;;;2.00;99.90;;;0.20;95.43;99068.47;4993962;28;20050;-41
2020/12/05 05:34:43;;;;;;;26.50;12.63;;;2.10;99.90;;;0.27;95.87;99064.84;4964504;28;20069;-41
2020/12/05 05:37:20;;;;;;;28.77;12.57;;;2.20;99.90;;;0.31;96.00;99069.81;4961737;28;20406;-41
2020/12/05 05:39:53;;;;;;;25.33;11.75;;;2.20;99.90;;;0.33;96.17;99065.09;4962199;28;20072;-41
2020/12/05 05:42:34;;;;;;;25.48;12.38;;;2.20;99.90;;;0.34;96.07;99067.59;5011481;28;20048;-41
2020/12/05 05:45:22;;;;;;;23.73;11.45;;;2.20;99.90;;;0.29;95.80;99070.03;4977582;28;20041;-41
2020/12/05 05:47:53;;;;;;;22.67;10.57;;;2.20;99.90;;;0.23;95.71;99070.75;4977596;28;20076;-41
2020/12/05 05:50:33;;;;;;;25.00;11.23;;;2.20;99.90;;;0.20;96.08;99073.81;4977756;28;20046;-41
2020/12/05 05:53:07;;;;;;;19.42;9.98;;;2.10;99.90;;;0.17;96.04;99084.94;4963331;28;20508;-41
2020/12/05 05:55:47;;;;;;;20.45;10.63;;;2.10;99.90;;;0.18;96.17;99091.97;4961364;28;20041;-41
2020/12/05 05:58:20;;;;;;;23.67;11.65;;;2.10;99.90;;;0.16;96.17;99094.00;4993743;28;20042;-41
2020/12/05 06:00:51;;;;;;;31.88;13.23;;;2.10;99.90;;;0.16;96.24;99099.38;4993724;28;20136;-41
2020/12/05 06:03:28;;;;;;;27.85;12.63;;;2.10;99.90;;;0.17;96.08;99103.72;4961351;28;20046;-41
2020/12/05 06:05:59;;;;;;;26.05;12.10;;;2.10;99.90;;;0.21;96.42;99113.88;4965074;28;20038;-41
2020/12/05 06:08:29;;;;;;;21.38;10.65;;;2.10;99.90;;;0.25;96.36;99125.06;4965131;28;20471;-41
2020/12/05 06:10:59;;;;;;;21.15;10.73;;;2.20;99.90;;;0.29;96.19;99121.00;4965380;28;20038;-41
2020/12/05 06:13:31;;;;;;;22.35;10.65;;;2.20;99.90;;;0.32;96.81;99128.69;4980482;28;20096;-41
2020/12/05 06:16:00;;;;;;;22.95;11.23;;;2.20;99.90;;;0.33;96.31;99129.50;4964799;28;20049;-41
2020/12/05 06:18:29;;;;;;;23.92;11.73;;;2.20;99.90;;;0.33;96.47;99142.91;4997419;28;20469;-41
2020/12/05 06:20:57;;;;;;;19.70;9.63;;;2.20;99.90;;;0.34;96.37;99147.25;4997231;28;20041;-41
2020/12/05 06:23:41;;;;;;;23.45;10.60;;;2.20;99.90;;;0.31;96.38;99148.47;4980650;28;20104;-41
2020/12/05 06:26:17;;;;;;;23.23;10.70;;;2.20;99.90;;;0.27;96.29;99153.38;4981876;28;20065;-41
2020/12/05 06:28:46;;;;;;;23.50;10.98;;;2.20;99.90;;;0.25;96.32;99151.88;4965956;28;20452;-41
2020/12/05 06:31:14;;;;;;;23.55;11.48;;;2.20;99.90;;;0.23;96.54;99159.28;4980784;28;20058;-41
2020/12/05 06:33:44;;;;;;;22.88;10.77;;;2.20;99.90;;;0.20;96.14;99173.91;4948772;28;20121;-41
2020/12/05 06:36:31;;;;;;;23.52;11.35;;;2.10;99.90;;;0.21;96.42;99189.00;4964490;28;20168;-41
2020/12/05 06:39:10;;;;;;;23.58;11.02;;;2.10;99.90;;;0.23;96.65;99186.13;4996655;28;20117;-41
2020/12/05 06:41:43;;;;;;;24.08;10.98;;;2.20;99.90;;;0.25;96.54;99197.50;4996791;28;20057;-41
2020/12/05 06:44:23;;;;;;;24.75;10.48;;;2.20;99.90;;;0.24;96.76;99195.81;4981181;28;20050;-41
2020/12/05 06:47:04;;;;;;;22.45;10.95;;;2.20;99.90;;;0.26;96.71;99185.75;4964310;28;20076;-41
2020/12/05 06:49:42;;;;;;;21.60;11.02;;;2.20;99.90;;;0.27;96.88;99190.94;4980346;28;20100;-41
2020/12/05 06:52:29;;;;;;;22.38;10.32;;;2.20;99.90;;;0.28;96.77;99199.84;5014078;28;20069;-41
2020/12/05 06:55:08;;;;;;;22.30;10.82;;;2.20;99.90;;;0.27;96.73;99208.91;4998266;28;20508;-41
2020/12/05 06:57:37;;;;;;;23.65;10.60;;;2.20;99.90;;;0.31;96.69;99218.22;4980935;28;20042;-41
2020/12/05 07:00:23;;;;;;;24.23;11.88;;;2.20;99.90;;;0.35;97.25;99227.56;4964196;28;20069;-41
2020/12/05 07:03:12;;;;;;;25.25;11.50;;;2.30;99.90;;;0.40;97.11;99235.09;4996520;28;20575;-41
2020/12/05 07:05:51;;;;;;;22.02;11.00;;;2.30;99.90;;;0.45;97.25;99247.91;4995949;28;20045;-41
2020/12/05 07:08:30;;;;;;;26.63;11.05;;;2.30;99.90;;;0.48;97.11;99247.53;4996334;28;20050;-41
2020/12/05 07:11:18;;;;;;;24.75;11.30;;;2.40;99.90;;;0.50;97.30;99235.63;4980021;28;20515;-41
2020/12/05 07:13:48;;;;;;;22.08;11.10;;;2.40;99.90;;;0.51;97.13;99231.91;5013624;28;20069;-41
2020/12/05 07:16:27;;;;;;;27.48;12.05;;;2.40;99.90;;;0.49;97.26;99247.38;4979571;28;20073;-41
2020/12/05 07:19:04;;;;;;;22.17;11.20;;;2.40;99.90;;;0.48;97.07;99250.22;4996293;28;20049;-41
2020/12/05 07:21:31;;;;;;;25.23;12.05;;;2.40;99.90;;;0.52;97.17;99264.94;4981213;28;20053;-41
2020/12/05 07:23:58;;;;;;;23.53;11.93;;;2.40;99.90;;;0.54;96.88;99269.13;4963609;28;20046;-41
2020/12/05 07:26:26;;;;;;;22.55;11.15;;;2.40;99.90;;;0.55;97.34;99276.16;4979768;28;20104;-41
2020/12/05 07:28:56;;;;;;;24.30;10.95;;;2.50;99.90;;;0.54;97.34;99274.50;4963937;28;20042;-41
2020/12/05 07:31:24;;;;;;;23.70;10.60;;;2.50;99.90;;;0.49;97.27;99263.47;5013237;28;20504;-41
2020/12/05 07:33:53;;;;;;;20.88;9.93;;;2.40;99.90;;;0.53;97.10;99274.66;4979799;28;20034;-41
2020/12/05 07:36:20;;;;;;;21.65;9.68;;;2.40;99.90;;;0.55;97.41;99276.16;4963673;28;20570;-41
2020/12/05 07:38:47;;;;;;;19.88;10.02;;;2.50;99.90;;;0.53;97.22;99271.97;4979725;28;20316;-41
2020/12/05 07:41:19;;;;;;;20.92;9.70;;;2.40;99.90;;;0.51;97.28;99285.59;4947613;28;20049;-41
2020/12/05 07:43:54;;;;;;;19.08;8.90;;;2.40;99.90;;;0.47;97.41;99289.66;4995555;28;20125;-41
2020/12/05 07:46:22;;;;;;;20.13;9.10;;;2.40;99.90;;;0.48;97.49;99301.22;4996691;28;20467;-41
2020/12/05 07:48:49;;;;;;;17.42;8.02;;;2.40;99.90;;;0.49;97.27;99303.72;4963732;28;20045;-41
2020/12/05 07:51:18;;;;;;;14.18;8.13;;;2.40;99.90;;;0.52;97.44;99308.72;4963058;28;20042;-41
2020/12/05 07:53:49;;;;;;;21.70;8.98;;;2.40;99.90;;;0.55;97.51;99310.22;5012613;28;20034;-41
2020/12/05 07:56:20;;;;;;;18.30;8.63;;;2.40;99.90;;;0.58;97.50;99309.84;4979468;28;20041;-41
2020/12/05 07:58:57;;;;;;;16.58;8.43;;;2.50;99.90;;;0.68;97.41;99329.19;4995464;28;20122;-41
2020/12/05 08:01:43;;;;;;;18.95;8.85;;;2.50;99.90;;;0.78;97.54;99333.44;4995268;28;20144;-41
2020/12/05 08:04:21;;;;;;;18.27;8.25;;;2.60;99.90;;;0.91;97.12;99348.91;4995239;28;20046;-41
2020/12/05 08:07:17;;;;;;;18.60;8.55;;;2.70;99.90;;;1.00;97.62;99337.88;5012704;28;20080;-42
2020/12/05 08:09:45;;;;;;;19.17;8.98;;;2.80;99.90;;;1.07;98.31;99339.84;4995101;28;20124;-41
2020/12/05 08:12:21;;;;;;;16.60;7.82;;;2.90;99.90;;;1.14;97.78;99341.56;4995007;28;20056;-41
2020/12/05 08:14:48;;;;;;;18.85;9.00;;;3.00;99.90;;;1.22;98.01;99342.50;4994662;28;20425;-41
2020/12/05 08:17:15;;;;;;;16.98;8.82;;;3.00;99.90;;;1.27;97.72;99350.84;4962837;28;20042;-41
2020/12/05 08:19:43;;;;;;;19.90;9.20;;;3.10;99.90;;;1.31;97.58;99359.34;4931168;28;20043;-41
2020/12/05 08:22:11;;;;;;;19.02;9.35;;;3.10;99.90;;;1.35;97.89;99363.34;4962899;28;20041;-41
2020/12/05 08:24:51;;;;;;;20.95;9.10;;;3.10;99.90;;;1.40;97.97;99383.25;5012276;28;20056;-41
2020/12/05 08:27:19;;;;;;;17.38;9.07;;;3.20;99.90;;;1.45;97.76;99374.63;4994217;28;20071;-41
2020/12/05 08:29:49;;;;;;;21.80;9.68;;;3.30;99.90;;;1.53;97.99;99371.00;4962757;28;20567;-41
2020/12/05 08:32:20;;;;;;;18.40;9.60;;;3.30;99.90;;;1.62;97.52;99379.78;4994601;28;20049;-41
2020/12/05 08:34:48;;;;;;;22.33;9.27;;;3.40;99.90;;;1.70;97.36;99385.03;4978269;28;20069;-41
2020/12/05 08:37:23;;;;;;;19.90;9.32;;;3.40;99.90;;;1.80;97.15;99388.25;4962581;28;20096;-41
2020/12/05 08:39:54;;;;;;;19.52;8.98;;;3.50;99.90;;;1.88;97.14;99391.88;4994592;28;20064;-41
2020/12/05 08:42:22;;;;;;;22.42;9.07;;;3.60;99.90;;;1.92;96.46;99395.84;4962543;28;20083;-41
2020/12/05 08:44:49;;;;;;;19.20;8.77;;;3.70;99.90;;;2.00;97.24;99396.53;4994686;28;20096;-41
2020/12/05 08:47:16;;;;;;;22.55;10.13;;;3.70;99.90;;;2.09;96.38;99394.53;4978583;28;20054;-41
2020/12/05 08:49:48;;;;;;;24.90;10.68;;;3.80;99.90;;;2.29;96.54;99407.34;4962517;28;20048;-41
2020/12/05 08:52:17;;;;;;;20.98;9.75;;;3.90;99.90;;;2.41;95.51;99407.69;5011804;28;20500;-41
2020/12/05 08:54:54;;;;;;;22.05;9.65;;;4.00;99.90;;;2.56;95.57;99400.34;4994302;28;20121;-41
2020/12/05 08:57:23;;;;;;;22.25;10.25;;;4.10;99.90;;;2.66;94.28;99393.78;4994374;28;20573;-41
2020/12/05 09:00:00;;;;;;;21.48;9.00;;;4.30;99.90;;;2.75;92.86;99402.56;4994456;28;20038;-41
2020/12/05 09:02:36;;;;;;;17.70;9.00;;;4.40;99.90;;;2.78;91.97;99397.59;4994240;28;20069;-41
2020/12/05 09:05:03;;;;;;;20.30;8.57;;;4.40;99.90;;;2.79;91.68;99393.91;4994072;28;20080;-41
2020/12/05 09:07:30;;;;;;;17.77;8.88;;;4.40;99.90;;;2.79;90.61;99401.97;4994394;28;20538;-41
2020/12/05 09:09:58;;;;;;;13.75;7.20;;;4.40;99.90;;;2.81;90.66;99399.91;4962300;28;20049;-41
2020/12/05 09:12:34;;;;;;;15.70;8.10;;;4.50;99.90;;;2.87;90.43;99406.38;4962041;28;20318;-41
2020/12/05 09:15:07;;;;;;;14.50;6.82;;;4.50;99.90;;;2.92;88.99;99398.53;5011531;28;20062;-41
2020/12/05 09:17:34;;;;;;;13.27;6.50;;;4.50;99.90;;;2.99;87.59;99401.25;4977937;28;20128;-41
2020/12/05 09:20:14;;;;;;;12.25;6.68;;;4.60;99.90;;;3.05;87.92;99394.25;4962529;28;20038;-41
2020/12/05 09:22:54;;;;;;;15.00;7.82;;;4.70;99.90;;;3.10;87.92;99411.50;4994434;28;20141;-41
2020/12/05 09:25:41;;;;;;;11.88;6.32;;;4.70;99.90;;;3.17;87.14;99415.06;4993934;28;20571;-41
2020/12/05 09:28:13;;;;;;;11.50;5.57;;;4.80;99.90;;;3.30;85.03;99408.06;4993972;28;20141;-41
2020/12/05 09:30:41;;;;;;;11.93;5.45;;;4.90;99.90;;;3.34;85.00;99412.06;4994167;28;20468;-41
2020/12/05 09:33:13;;;;;;;10.13;5.20;;;4.90;99.90;;;3.34;84.93;99420.13;4994239;28;20428;-41
2020/12/05 09:35:39;;;;;;;11.55;4.93;;;5.00;99.90;;;3.42;84.93;99427.22;4993939;28;20072;-41
2020/12/05 09:38:07;;;;;;;8.70;4.00;;;5.00;99.90;;;3.48;84.45;99434.53;4994149;28;20042;-41
2020/12/05 09:40:34;;;;;;;6.97;3.47;;;5.10;99.90;;;3.59;83.26;99438.50;4964401;28;20046;-41
2020/12/05 09:43:03;;;;;;;6.30;3.07;;;5.20;99.90;;;3.72;82.09;99437.75;4982134;28;20049;-42
2020/12/05 09:45:32;;;;;;;6.70;3.13;;;5.30;99.90;;;3.82;81.14;99454.38;4981752;28;20509;-41
2020/12/05 09:48:00;;;;;;;5.78;2.90;;;5.40;99.90;;;3.92;79.32;99459.38;4982624;28;20176;-41
2020/12/05 09:50:27;;;;;;;4.20;2.47;;;5.50;99.90;;;4.01;78.18;99443.84;4997702;28;20548;-41
2020/12/05 09:52:54;;;;;;;6.70;2.67;;;5.60;99.90;;;4.07;78.15;99431.38;4965370;28;20120;-41
2020/12/05 09:55:22;;;;;;;6.35;2.83;;;5.70;99.90;;;4.12;78.25;99428.94;4997738;28;20113;-41
2020/12/05 09:57:49;;;;;;;5.17;2.97;;;5.70;99.90;;;4.16;78.00;99420.19;4997831;28;20046;-41
2020/12/05 10:00:16;;;;;;;5.25;2.78;;;5.70;99.90;;;4.24;76.83;99421.88;4981340;28;20482;-41
2020/12/05 10:02:43;;;;;;;5.75;2.50;;;5.80;99.90;;;4.26;77.11;99419.81;4997668;28;20580;-41
2020/12/05 10:05:12;;;;;;;5.50;2.45;;;5.90;99.90;;;4.33;76.40;99425.22;4965282;28;20048;-41
2020/12/05 10:07:41;;;;;;;6.78;2.88;;;5.90;99.90;;;4.39;75.82;99439.78;4997513;28;20508;-41
2020/12/05 10:10:11;;;;;;;5.97;2.40;;;6.00;99.90;;;4.43;75.36;99457.22;4997711;28;20165;-41
2020/12/05 10:12:44;;;;;;;4.95;2.10;;;6.00;99.90;;;4.47;75.11;99459.28;4997409;28;20524;-41
2020/12/05 10:15:14;;;;;;;3.88;2.00;;;6.10;99.90;;;4.53;73.90;99456.84;4982556;28;20125;-41
2020/12/05 10:17:44;;;;;;;3.63;1.73;;;6.10;99.90;;;4.56;74.14;99464.53;4997300;28;20045;-41
2020/12/05 10:20:11;;;;;;;3.35;1.67;;;6.20;99.90;;;4.60;72.84;99463.88;4997464;28;20038;-41
2020/12/05 10:22:38;;;;;;;4.15;1.67;;;6.20;99.90;;;4.61;72.01;99470.13;5014543;28;20061;-41
2020/12/05 10:25:07;;;;;;;3.50;1.40;;;6.20;99.90;;;4.66;71.93;99464.94;4964797;28;20069;-41
2020/12/05 10:27:34;;;;;;;3.38;1.55;;;6.30;99.90;;;4.71;73.16;99461.63;4996962;28;20065;-41
2020/12/05 10:30:02;;;;;;;2.50;1.30;;;6.30;99.90;;;4.74;70.71;99447.69;4980970;28;20116;-41
2020/12/05 10:32:29;;;;;;;4.20;1.30;;;6.40;99.90;;;4.75;71.65;99450.16;5014516;28;20042;-41
2020/12/05 10:34:56;;;;;;;3.42;1.65;;;6.40;99.90;;;4.79;72.24;99455.19;4996740;28;20472;-42
2020/12/05 10:37:23;;;;;;;2.75;1.58;;;6.40;99.90;;;4.86;71.69;99447.91;4997969;28;20048;-41
2020/12/05 10:39:51;;;;;;;4.32;1.70;;;6.40;99.90;;;4.84;71.74;99458.91;4964852;28;20042;-41
2020/12/05 10:42:18;;;;;;;4.22;1.88;;;6.50;99.90;;;4.85;72.66;99455.16;4996864;28;20041;-41